Time;durP1;ratioP1;P1;durP2;ratioP2;P2;SDS_P1;SDS_P2;PMS_P1;PMS_P2;Temp;Humidity;BMP_temperature;BMP_pressure;BME280_temperature;BME280_humidity;BME280_pressure;Samples;Min_cycle;Max_cycle;Signal;HPM_P1;HPM_P2
2022/07/25 00:02:15;;;;;;;6.65;5.00;;;23.80;77.90;;;;;;5071204;28;20084;-63
2022/07/25 00:04:42;;;;;;;5.20;4.70;;;23.70;78.10;;;;;;5072802;28;20531;-63
2022/07/25 00:07:07;;;;;;;6.55;5.45;;;23.70;78.40;;;;;;5070881;28;20020;-63
2022/07/25 00:09:33;;;;;;;7.40;5.80;;;23.60;78.70;;;;;;5072167;28;20533;-62
2022/07/25 00:11:59;;;;;;;6.88;5.95;;;23.50;79.30;;;;;;5071754;28;20594;-63
2022/07/25 00:14:24;;;;;;;7.10;5.72;;;23.50;78.70;;;;;;5072233;28;20472;-63
2022/07/25 00:16:50;;;;;;;6.50;5.70;;;23.40;78.80;;;;;;5070234;28;20029;-63
2022/07/25 00:19:16;;;;;;;6.85;5.93;;;23.40;78.90;;;;;;5073272;28;20083;-63
2022/07/25 00:21:41;;;;;;;7.40;5.90;;;23.40;79.10;;;;;;5072555;28;20074;-63
2022/07/25 00:24:07;;;;;;;6.00;5.40;;;23.40;79.20;;;;;;5073237;28;20027;-63
2022/07/25 00:26:33;;;;;;;8.52;6.45;;;23.40;79.30;;;;;;5069648;28;20040;-63
2022/07/25 00:28:58;;;;;;;6.25;5.65;;;23.40;79.40;;;;;;5073080;28;20024;-63
2022/07/25 00:31:24;;;;;;;7.10;6.03;;;23.40;79.40;;;;;;5072026;28;20024;-62
2022/07/25 00:33:49;;;;;;;7.43;6.72;;;23.30;79.50;;;;;;5071959;28;20017;-62
2022/07/25 00:36:15;;;;;;;11.10;6.45;;;23.30;79.70;;;;;;5070141;28;20028;-63
2022/07/25 00:38:40;;;;;;;8.02;6.47;;;23.30;79.80;;;;;;5072342;28;20035;-63
2022/07/25 00:41:06;;;;;;;7.75;6.88;;;23.30;79.80;;;;;;5067265;28;20020;-62
2022/07/25 00:43:32;;;;;;;7.68;6.13;;;23.30;79.80;;;;;;5068799;28;20043;-63
2022/07/25 00:45:57;;;;;;;7.78;6.97;;;23.20;79.80;;;;;;5069636;28;20067;-63
2022/07/25 00:48:24;;;;;;;7.72;6.88;;;23.20;79.90;;;;;;5068856;28;20052;-63
2022/07/25 00:50:50;;;;;;;8.60;7.18;;;23.20;79.90;;;;;;5068876;28;20089;-62
2022/07/25 00:53:15;;;;;;;8.00;7.20;;;23.20;80.10;;;;;;5068681;28;20484;-62
2022/07/25 00:55:41;;;;;;;7.57;6.85;;;23.20;80.30;;;;;;5067718;28;20494;-63
2022/07/25 00:58:07;;;;;;;9.05;7.70;;;23.10;80.40;;;;;;5066325;28;20161;-63
2022/07/25 01:00:32;;;;;;;11.52;6.90;;;23.10;80.60;;;;;;5069405;28;20466;-62
2022/07/25 01:02:58;;;;;;;7.75;6.95;;;23.10;80.80;;;;;;5067491;28;20033;-63
2022/07/25 01:05:23;;;;;;;10.02;8.50;;;23.00;80.90;;;;;;5069889;28;20408;-62
2022/07/25 01:07:50;;;;;;;9.07;7.70;;;23.00;81.20;;;;;;5068416;28;20384;-63
2022/07/25 01:10:16;;;;;;;9.30;8.38;;;22.90;81.40;;;;;;5070929;28;20040;-62
2022/07/25 01:12:50;;;;;;;10.23;8.43;;;22.90;81.80;;;;;;5068126;28;20032;-62
2022/07/25 01:15:20;;;;;;;11.35;8.85;;;22.80;81.90;;;;;;5066977;28;20021;-62
2022/07/25 01:17:46;;;;;;;11.45;9.75;;;22.70;82.30;;;;;;5082487;28;20112;-63
2022/07/25 01:20:23;;;;;;;10.30;9.20;;;22.70;82.50;;;;;;5065533;28;20115;-63
2022/07/25 01:22:49;;;;;;;9.88;8.88;;;22.70;82.50;;;;;;5068502;28;20484;-62
2022/07/25 01:25:15;;;;;;;10.32;9.23;;;22.60;82.90;;;;;;5068256;28;20115;-63
2022/07/25 01:27:42;;;;;;;12.77;9.90;;;22.60;83.10;;;;;;5069477;28;20029;-62
2022/07/25 01:30:09;;;;;;;10.45;9.45;;;22.50;83.20;;;;;;5066877;28;20032;-63
2022/07/25 01:32:35;;;;;;;12.02;10.38;;;22.50;83.30;;;;;;5068487;28;20032;-63
2022/07/25 01:35:03;;;;;;;11.23;9.82;;;22.50;83.50;;;;;;5067975;28;20037;-63
2022/07/25 01:37:28;;;;;;;12.32;9.43;;;22.40;83.60;;;;;;5064577;28;20025;-63
2022/07/25 01:39:54;;;;;;;12.20;10.40;;;22.40;84.30;;;;;;5068988;28;20392;-63
2022/07/25 01:42:19;;;;;;;11.75;10.40;;;22.40;83.80;;;;;;5067126;28;20108;-62
2022/07/25 01:44:45;;;;;;;12.13;10.93;;;22.40;83.70;;;;;;5067106;28;20075;-63
2022/07/25 01:47:10;;;;;;;10.88;9.77;;;22.40;83.90;;;;;;5067646;28;20059;-63
2022/07/25 01:49:36;;;;;;;13.20;10.50;;;22.30;84.20;;;;;;5068790;28;20024;-63
2022/07/25 01:52:02;;;;;;;12.98;10.13;;;22.30;84.30;;;;;;5067698;28;20127;-62
2022/07/25 01:54:27;;;;;;;11.40;10.15;;;22.30;84.50;;;;;;5067194;28;20020;-63
2022/07/25 01:56:53;;;;;;;12.27;10.98;;;22.30;84.70;;;;;;5070063;28;20024;-63
2022/07/25 01:59:18;;;;;;;12.68;10.60;;;22.30;84.90;;;;;;5068784;28;20041;-62
2022/07/25 02:01:44;;;;;;;13.80;11.43;;;22.20;84.80;;;;;;5066543;28;20036;-63
2022/07/25 02:04:09;;;;;;;11.80;10.48;;;22.20;84.80;;;;;;5069356;28;20021;-63
2022/07/25 02:06:35;;;;;;;11.68;10.52;;;22.20;84.90;;;;;;5068510;28;20089;-63
2022/07/25 02:09:02;;;;;;;14.02;10.68;;;22.20;84.70;;;;;;5066340;28;20032;-63
2022/07/25 02:11:28;;;;;;;11.43;10.23;;;22.20;84.60;;;;;;5067979;28;20039;-62
2022/07/25 02:13:53;;;;;;;10.80;9.70;;;22.20;84.40;;;;;;5068156;28;20028;-62
2022/07/25 02:16:19;;;;;;;10.32;9.32;;;22.20;84.40;;;;;;5065658;28;20366;-62
2022/07/25 02:18:44;;;;;;;11.40;10.20;;;22.20;84.40;;;;;;5066870;28;20111;-63
2022/07/25 02:21:10;;;;;;;13.30;10.73;;;22.20;84.30;;;;;;5068130;28;20074;-63
2022/07/25 02:23:36;;;;;;;11.73;10.52;;;22.20;84.30;;;;;;5066339;28;20094;-63
2022/07/25 02:26:02;;;;;;;12.77;10.05;;;22.20;84.50;;;;;;5065709;28;20039;-63
2022/07/25 02:28:28;;;;;;;11.70;10.35;;;22.20;84.40;;;;;;5067158;28;20020;-63
2022/07/25 02:30:54;;;;;;;13.50;10.60;;;22.20;84.60;;;;;;5067046;28;20024;-63
2022/07/25 02:33:20;;;;;;;12.18;10.85;;;22.20;84.60;;;;;;5081233;28;20127;-63
2022/07/25 02:35:45;;;;;;;11.98;10.77;;;22.10;84.60;;;;;;5068426;28;20029;-62
2022/07/25 02:38:18;;;;;;;11.70;10.50;;;22.10;84.80;;;;;;5067041;28;20066;-62
2022/07/25 02:40:47;;;;;;;12.75;11.30;;;22.00;84.90;;;;;;5067859;28;20666;-62
2022/07/25 02:43:13;;;;;;;;;;;22.00;85.10;;;;;;5068113;28;20540;-63
2022/07/25 02:45:38;;;;;;;11.55;10.27;;;21.90;85.00;;;;;;5067065;28;20021;-62
2022/07/25 02:48:04;;;;;;;12.90;10.77;;;21.90;85.40;;;;;;5068115;28;20021;-63
2022/07/25 02:50:30;;;;;;;14.35;10.68;;;21.90;85.30;;;;;;5066736;28;20499;-62
2022/07/25 02:52:55;;;;;;;15.38;11.90;;;21.90;85.40;;;;;;5067405;28;20107;-62
2022/07/25 02:55:21;;;;;;;13.38;11.98;;;21.90;85.40;;;;;;5065320;28;20016;-62
2022/07/25 02:57:46;;;;;;;12.63;11.02;;;21.90;85.40;;;;;;5081292;28;20017;-62
2022/07/25 03:00:13;;;;;;;12.15;10.95;;;21.90;85.40;;;;;;5067045;28;20049;-62
2022/07/25 03:02:39;;;;;;;12.60;11.30;;;21.90;85.40;;;;;;5067327;28;20035;-63
2022/07/25 03:05:07;;;;;;;11.95;10.63;;;21.80;85.50;;;;;;5066606;28;20036;-63
2022/07/25 03:07:33;;;;;;;12.93;11.50;;;21.80;85.50;;;;;;5066920;28;20024;-62
2022/07/25 03:09:59;;;;;;;12.13;10.80;;;21.80;85.70;;;;;;5065912;28;20039;-63
2022/07/25 03:12:24;;;;;;;12.90;11.45;;;21.70;85.80;;;;;;5065824;28;20028;-63
2022/07/25 03:14:50;;;;;;;13.57;12.23;;;21.70;85.90;;;;;;5065643;28;20056;-62
2022/07/25 03:17:15;;;;;;;13.25;11.52;;;21.70;86.10;;;;;;5067597;28;20028;-63
2022/07/25 03:19:41;;;;;;;12.85;11.52;;;21.70;86.10;;;;;;5065880;28;20060;-62
2022/07/25 03:22:07;;;;;;;13.18;11.77;;;21.70;86.40;;;;;;5085769;28;20066;-63
2022/07/25 03:24:32;;;;;;;14.13;11.70;;;21.60;86.20;;;;;;5069105;28;20035;-62
2022/07/25 03:26:58;;;;;;;14.45;11.15;;;21.60;86.40;;;;;;5071907;28;20029;-62
2022/07/25 03:29:23;;;;;;;13.70;11.82;;;21.60;86.30;;;;;;5068454;28;20480;-62
2022/07/25 03:31:49;;;;;;;13.15;11.80;;;21.60;86.50;;;;;;5071680;28;20442;-62
2022/07/25 03:34:14;;;;;;;12.88;11.50;;;21.60;86.70;;;;;;5069091;28;20522;-62
2022/07/25 03:36:40;;;;;;;15.68;12.48;;;21.50;86.60;;;;;;5071164;28;20465;-62
2022/07/25 03:39:05;;;;;;;14.73;11.93;;;21.60;86.70;;;;;;5068992;28;20055;-63
2022/07/25 03:41:31;;;;;;;13.82;11.93;;;21.60;86.70;;;;;;5070575;28;20503;-62
2022/07/25 03:43:56;;;;;;;14.50;11.45;;;21.50;86.70;;;;;;5068917;28;20044;-63
2022/07/25 03:46:22;;;;;;;16.25;12.45;;;21.50;87.00;;;;;;5070611;28;20084;-63
2022/07/25 03:48:47;;;;;;;12.82;11.48;;;21.50;87.30;;;;;;5067037;28;20079;-62
2022/07/25 03:51:13;;;;;;;12.65;11.35;;;21.50;87.20;;;;;;5070329;28;20028;-62
2022/07/25 03:56:22;;;;;;;10.55;9.55;;;21.40;87.10;;;;;;5068946;28;20071;-62
2022/07/25 03:58:48;;;;;;;10.63;9.52;;;21.40;87.00;;;;;;5066305;28;20423;-63
2022/07/25 04:01:13;;;;;;;10.88;9.75;;;21.50;87.50;;;;;;5070864;28;20543;-62
2022/07/25 04:03:39;;;;;;;9.68;8.52;;;21.50;86.70;;;;;;5069368;28;20016;-63
2022/07/25 04:06:05;;;;;;;9.05;8.15;;;21.60;86.50;;;;;;5070513;28;20064;-63
2022/07/25 04:08:30;;;;;;;9.82;7.72;;;21.60;86.40;;;;;;5069633;28;20016;-63
2022/07/25 04:10:56;;;;;;;8.25;7.20;;;21.60;86.30;;;;;;5069721;28;20114;-63
2022/07/25 04:13:21;;;;;;;7.65;6.95;;;21.70;86.20;;;;;;5067268;28;20354;-62
2022/07/25 04:15:47;;;;;;;9.00;6.75;;;21.70;86.10;;;;;;5070715;28;20450;-62
2022/07/25 04:18:12;;;;;;;8.52;6.90;;;21.70;86.00;;;;;;5067740;28;20552;-63
2022/07/25 04:20:38;;;;;;;10.15;9.15;;;21.80;86.00;;;;;;5069682;28;20025;-63
2022/07/25 04:23:04;;;;;;;12.30;11.05;;;21.70;86.00;;;;;;5066658;28;20021;-63
2022/07/25 04:25:29;;;;;;;11.45;10.25;;;21.70;86.30;;;;;;5070932;28;20108;-63
2022/07/25 04:27:55;;;;;;;12.55;11.25;;;21.60;86.40;;;;;;5069164;28;20039;-62
2022/07/25 04:30:20;;;;;;;15.55;10.77;;;21.50;86.50;;;;;;5069273;28;20129;-62
2022/07/25 04:32:46;;;;;;;12.77;11.43;;;21.50;86.80;;;;;;5065737;28;20024;-62
2022/07/25 04:35:12;;;;;;;12.30;11.07;;;21.50;87.00;;;;;;5070621;28;20494;-62
2022/07/25 04:37:37;;;;;;;13.75;12.07;;;21.40;87.30;;;;;;5068004;28;20028;-62
2022/07/25 04:40:04;;;;;;;11.30;9.88;;;21.50;87.40;;;;;;5068940;28;20035;-62
2022/07/25 04:42:30;;;;;;;13.05;11.18;;;21.40;87.60;;;;;;5067033;28;20657;-62
2022/07/25 04:44:55;;;;;;;11.48;10.25;;;21.40;87.70;;;;;;5068332;28;20060;-62
2022/07/25 04:47:20;;;;;;;11.18;9.93;;;21.50;87.90;;;;;;5069516;28;20068;-63
2022/07/25 04:49:46;;;;;;;9.70;8.05;;;21.50;87.90;;;;;;5067735;28;20097;-62
2022/07/25 04:52:12;;;;;;;9.85;8.63;;;21.50;87.60;;;;;;5067984;28;20035;-62
2022/07/25 04:54:37;;;;;;;8.77;7.88;;;21.60;87.60;;;;;;5069052;28;20028;-62
2022/07/25 04:57:04;;;;;;;13.63;9.82;;;21.70;87.40;;;;;;5066901;28;20021;-63
2022/07/25 04:59:30;;;;;;;10.75;8.93;;;21.70;87.40;;;;;;5063734;28;20036;-62
2022/07/25 05:01:55;;;;;;;12.20;10.75;;;21.70;87.20;;;;;;5069635;28;20025;-63
2022/07/25 05:04:21;;;;;;;12.15;10.82;;;21.80;87.30;;;;;;5068589;28;20035;-62
2022/07/25 05:06:47;;;;;;;12.95;10.95;;;21.80;87.40;;;;;;5068915;28;20103;-62
2022/07/25 05:09:12;;;;;;;13.27;11.98;;;21.80;87.70;;;;;;5069013;28;20063;-62
2022/07/25 05:11:38;;;;;;;14.98;12.18;;;21.80;87.90;;;;;;5066808;28;20033;-62
2022/07/25 05:14:03;;;;;;;13.77;12.20;;;21.70;88.20;;;;;;5066935;28;20024;-62
2022/07/25 05:16:29;;;;;;;13.02;11.73;;;21.80;88.60;;;;;;5068973;28;20025;-62
2022/07/25 05:18:54;;;;;;;13.30;11.70;;;21.80;88.70;;;;;;5068754;28;20436;-62
2022/07/25 05:21:20;;;;;;;14.98;11.88;;;21.70;88.50;;;;;;5066319;28;20020;-62
2022/07/25 05:23:45;;;;;;;14.18;11.93;;;21.80;88.40;;;;;;5064485;28;20024;-62
2022/07/25 05:26:11;;;;;;;12.70;11.40;;;21.80;88.60;;;;;;5066639;28;20431;-62
2022/07/25 05:28:37;;;;;;;12.23;10.88;;;21.80;88.40;;;;;;5064935;28;20095;-62
2022/07/25 05:31:13;;;;;;;11.73;10.52;;;21.90;88.10;;;;;;5066595;28;20059;-62
2022/07/25 05:33:39;;;;;;;13.75;11.68;;;21.90;87.60;;;;;;5079384;28;20021;-62
2022/07/25 05:36:05;;;;;;;12.13;10.82;;;21.90;87.90;;;;;;5061812;28;20436;-62
2022/07/25 05:38:30;;;;;;;11.93;10.73;;;21.90;87.40;;;;;;5079366;28;20534;-62
2022/07/25 05:40:56;;;;;;;13.40;10.52;;;22.00;86.70;;;;;;5065148;28;20020;-62
2022/07/25 05:43:21;;;;;;;11.13;9.93;;;22.10;86.80;;;;;;5072220;28;20032;-62
2022/07/25 05:45:47;;;;;;;11.20;9.73;;;22.10;85.90;;;;;;5065257;28;20017;-62
2022/07/25 05:48:13;;;;;;;10.75;9.02;;;22.20;85.70;;;;;;5082129;28;20543;-62
2022/07/25 05:50:40;;;;;;;11.23;9.05;;;22.30;85.00;;;;;;5066645;28;20032;-62
2022/07/25 05:53:05;;;;;;;10.30;9.05;;;22.30;84.40;;;;;;5069232;28;20035;-62
2022/07/25 05:55:31;;;;;;;10.00;9.00;;;22.40;84.50;;;;;;5066549;28;20099;-62
2022/07/25 05:57:56;;;;;;;9.95;8.27;;;22.40;84.10;;;;;;5061468;28;20366;-62
2022/07/25 06:00:22;;;;;;;10.45;7.55;;;22.50;83.80;;;;;;5055305;28;20053;-62
2022/07/25 06:02:47;;;;;;;8.00;6.63;;;22.50;83.60;;;;;;5068515;28;20035;-62
2022/07/25 06:05:13;;;;;;;8.27;6.47;;;22.60;83.50;;;;;;5062633;28;20469;-63
2022/07/25 06:07:38;;;;;;;7.97;6.50;;;22.70;82.90;;;;;;5071504;28;20028;-62
2022/07/25 06:10:04;;;;;;;7.75;6.65;;;22.70;82.60;;;;;;5057954;28;20066;-62
2022/07/25 06:12:32;;;;;;;9.07;6.32;;;22.80;82.30;;;;;;5055490;28;20469;-63
2022/07/25 06:14:58;;;;;;;8.25;7.45;;;22.80;82.00;;;;;;5058215;28;20033;-63
2022/07/25 06:17:23;;;;;;;8.82;7.10;;;22.90;81.60;;;;;;5055441;28;20017;-62
2022/07/25 06:19:49;;;;;;;8.98;7.10;;;22.90;81.40;;;;;;5057363;28;20039;-63
2022/07/25 06:22:14;;;;;;;8.80;7.65;;;23.00;81.40;;;;;;5055528;28;20029;-62
2022/07/25 06:24:40;;;;;;;7.40;6.45;;;23.00;81.10;;;;;;5075223;28;20049;-62
2022/07/25 06:27:07;;;;;;;10.55;7.68;;;23.00;81.10;;;;;;5063229;28;20036;-62
2022/07/25 06:29:32;;;;;;;9.07;6.68;;;23.10;81.10;;;;;;5059331;28;20016;-63
2022/07/25 06:31:58;;;;;;;8.05;6.43;;;23.10;81.00;;;;;;5055760;28;20412;-63
2022/07/25 06:34:23;;;;;;;8.95;7.20;;;23.20;80.90;;;;;;5068797;28;20066;-62
2022/07/25 06:36:49;;;;;;;9.07;6.88;;;23.20;80.80;;;;;;5055068;28;20075;-62
2022/07/25 06:39:14;;;;;;;9.75;6.75;;;23.30;80.60;;;;;;5070579;28;20036;-63
2022/07/25 06:41:40;;;;;;;7.38;6.13;;;23.30;80.60;;;;;;5067767;28;20108;-63
2022/07/25 06:44:05;;;;;;;6.03;5.18;;;23.30;80.50;;;;;;5059452;28;20044;-62
2022/07/25 06:46:31;;;;;;;6.70;6.00;;;23.40;80.40;;;;;;5063522;28;20074;-62
2022/07/25 06:48:58;;;;;;;7.15;6.05;;;23.40;80.80;;;;;;5059828;28;20063;-63
2022/07/25 06:51:24;;;;;;;8.32;7.13;;;23.40;79.90;;;;;;5059094;28;20021;-62
2022/07/25 06:54:03;;;;;;;6.75;5.90;;;23.40;79.70;;;;;;5062854;28;20476;-62
2022/07/25 06:56:30;;;;;;;5.72;4.68;;;23.50;79.80;;;;;;5071301;28;20021;-63
2022/07/25 06:58:56;;;;;;;6.38;5.40;;;23.50;79.90;;;;;;5069888;28;20052;-62
2022/07/25 07:01:22;;;;;;;5.72;5.20;;;23.60;79.90;;;;;;5079492;28;20024;-62
2022/07/25 07:03:48;;;;;;;6.57;5.38;;;23.70;79.90;;;;;;5067950;28;20069;-62
2022/07/25 07:06:13;;;;;;;6.32;5.72;;;23.70;79.70;;;;;;5062035;28;20377;-62
2022/07/25 07:08:39;;;;;;;8.20;5.60;;;23.80;79.70;;;;;;5066637;28;20043;-63
2022/07/25 07:11:05;;;;;;;5.63;5.05;;;23.80;79.70;;;;;;5070716;28;20017;-63
2022/07/25 07:13:31;;;;;;;7.47;4.18;;;23.90;79.60;;;;;;5058049;28;20021;-62
2022/07/25 07:15:56;;;;;;;5.00;4.13;;;23.90;79.60;;;;;;5063760;28;20032;-63
2022/07/25 07:18:22;;;;;;;5.70;4.13;;;23.90;79.60;;;;;;5061644;28;20496;-63
2022/07/25 07:20:48;;;;;;;8.73;5.82;;;23.90;79.60;;;;;;5080328;28;20405;-62
2022/07/25 07:23:14;;;;;;;5.05;4.55;;;23.90;79.80;;;;;;5065649;28;20048;-63
2022/07/25 07:25:40;;;;;;;6.10;4.00;;;23.90;79.80;;;;;;5062232;28;20028;-62
2022/07/25 07:28:06;;;;;;;6.72;4.55;;;23.90;80.00;;;;;;5071547;28;20519;-63
2022/07/25 07:30:31;;;;;;;8.57;4.65;;;24.00;80.00;;;;;;5069538;28;20484;-62
2022/07/25 07:32:57;;;;;;;4.57;4.10;;;24.00;79.80;;;;;;5075319;28;20039;-62
2022/07/25 07:35:24;;;;;;;5.38;4.13;;;24.00;79.80;;;;;;5075466;28;20107;-63
2022/07/25 07:37:51;;;;;;;5.50;4.68;;;24.10;79.60;;;;;;5060980;28;20135;-62
2022/07/25 07:40:17;;;;;;;5.55;4.32;;;24.20;79.60;;;;;;5081890;28;20029;-62
2022/07/25 07:42:44;;;;;;;4.35;3.70;;;24.30;79.40;;;;;;5061711;28;20027;-62
2022/07/25 07:45:21;;;;;;;3.40;3.10;;;24.30;79.10;;;;;;5060890;28;20021;-62
2022/07/25 07:47:49;;;;;;;3.92;3.25;;;24.40;78.80;;;;;;5067196;28;20058;-62
2022/07/25 07:50:25;;;;;;;5.65;3.05;;;24.50;78.40;;;;;;5075070;28;20031;-62
2022/07/25 07:52:53;;;;;;;3.88;2.88;;;24.60;78.00;;;;;;5067587;28;20098;-62
2022/07/25 07:58:04;;;;;;;3.47;2.30;;;24.70;77.20;;;;;;5064407;28;20028;-62
2022/07/25 08:00:30;;;;;;;2.88;2.25;;;24.90;76.70;;;;;;5069874;28;20052;-62
2022/07/25 08:02:57;;;;;;;2.67;1.70;;;24.80;76.00;;;;;;5065792;28;20177;-63
2022/07/25 08:05:32;;;;;;;2.92;1.60;;;24.90;75.80;;;;;;5056120;28;20055;-62
2022/07/25 08:07:58;;;;;;;1.63;1.30;;;24.90;75.20;;;;;;5065047;28;20384;-62
2022/07/25 08:10:29;;;;;;;2.22;1.27;;;24.90;75.00;;;;;;5063374;28;20024;-63
2022/07/25 08:12:56;;;;;;;1.20;0.73;;;24.90;74.50;;;;;;5085052;28;20029;-62
2022/07/25 08:15:22;;;;;;;2.03;0.88;;;24.90;73.90;;;;;;5061639;28;20032;-62
2022/07/25 08:17:49;;;;;;;1.75;1.10;;;25.00;73.60;;;;;;5070845;28;20020;-62
2022/07/25 08:20:16;;;;;;;2.65;0.80;;;25.10;73.70;;;;;;5070621;28;20054;-62
2022/07/25 08:22:44;;;;;;;1.02;0.80;;;25.10;73.50;;;;;;5066582;28;20021;-62
2022/07/25 08:25:16;;;;;;;1.25;0.70;;;25.30;73.00;;;;;;5069823;28;20056;-62
2022/07/25 08:27:43;;;;;;;1.77;0.70;;;25.40;72.80;;;;;;5055145;28;20116;-62
2022/07/25 08:30:10;;;;;;;1.85;1.10;;;25.40;73.00;;;;;;5067855;28;20036;-62
2022/07/25 08:32:52;;;;;;;2.13;0.60;;;25.50;73.60;;;;;;5055061;28;20036;-62
2022/07/25 08:35:19;;;;;;;2.25;0.50;;;25.50;73.70;;;;;;5055203;28;20025;-62
2022/07/25 08:37:45;;;;;;;1.10;0.50;;;25.50;73.60;;;;;;5070635;28;20074;-62
2022/07/25 08:40:13;;;;;;;1.98;0.57;;;25.50;73.70;;;;;;5064970;28;20052;-63
2022/07/25 08:42:39;;;;;;;0.60;0.30;;;25.60;73.90;;;;;;5055831;28;20031;-62
2022/07/25 08:45:07;;;;;;;2.33;0.60;;;25.70;74.10;;;;;;5077532;28;20025;-63
2022/07/25 08:47:34;;;;;;;1.60;0.70;;;25.90;74.30;;;;;;5060121;28;20423;-62
2022/07/25 08:50:03;;;;;;;2.10;0.50;;;25.90;74.10;;;;;;5076839;28;20047;-63
2022/07/25 08:52:30;;;;;;;1.10;0.40;;;26.00;74.00;;;;;;5074255;28;20070;-62
2022/07/25 08:54:56;;;;;;;1.00;0.50;;;26.00;74.10;;;;;;5062528;28;20071;-62
2022/07/25 08:57:22;;;;;;;1.88;0.60;;;26.10;74.30;;;;;;5060966;28;20052;-63
2022/07/25 08:59:47;;;;;;;1.52;0.57;;;26.10;74.40;;;;;;5070611;28;20079;-62
2022/07/25 09:02:14;;;;;;;2.20;1.02;;;26.10;74.20;;;;;;5071290;28;20033;-63
2022/07/25 09:04:40;;;;;;;1.05;0.40;;;26.20;74.00;;;;;;5083892;28;20045;-62
2022/07/25 09:07:06;;;;;;;1.65;0.55;;;26.20;73.90;;;;;;5070083;28;20079;-62
2022/07/25 09:09:34;;;;;;;1.23;0.60;;;26.30;73.80;;;;;;5069931;28;20361;-62
2022/07/25 09:12:00;;;;;;;3.42;0.70;;;26.40;73.70;;;;;;5069395;28;20075;-63
2022/07/25 09:14:28;;;;;;;2.65;0.50;;;26.40;73.40;;;;;;5063304;28;20029;-62
2022/07/25 09:16:54;;;;;;;1.67;0.60;;;26.40;72.90;;;;;;5071356;28;20047;-62
2022/07/25 09:19:22;;;;;;;2.63;0.47;;;26.40;72.80;;;;;;5080598;28;20484;-62
2022/07/25 09:22:00;;;;;;;4.28;0.63;;;26.40;72.90;;;;;;5070811;28;20816;-63
2022/07/25 09:24:50;;;;;;;1.98;0.40;;;26.50;72.20;;;;;;5074662;28;20056;-63
2022/07/25 09:27:17;;;;;;;2.22;0.63;;;26.60;72.40;;;;;;5072726;28;20483;-62
2022/07/25 09:29:43;;;;;;;1.55;0.40;;;26.60;72.40;;;;;;5068954;28;20039;-62
2022/07/25 09:32:20;;;;;;;2.25;0.50;;;26.70;72.50;;;;;;5071615;28;20029;-62
2022/07/25 09:34:48;;;;;;;1.45;0.50;;;26.90;72.30;;;;;;5070000;28;20075;-63
2022/07/25 09:37:16;;;;;;;1.63;0.52;;;26.90;72.30;;;;;;5081167;28;20040;-63
2022/07/25 09:39:47;;;;;;;1.90;0.73;;;26.90;72.00;;;;;;5069835;28;20024;-62
2022/07/25 09:42:17;;;;;;;1.77;0.50;;;27.00;72.00;;;;;;5069775;28;20046;-63
2022/07/25 09:44:43;;;;;;;2.05;0.63;;;27.00;71.20;;;;;;5064034;28;20021;-62
2022/07/25 09:47:13;;;;;;;1.17;0.60;;;27.00;70.40;;;;;;5067145;28;20048;-62
2022/07/25 09:49:43;;;;;;;2.20;0.65;;;27.00;70.30;;;;;;5080778;28;20040;-62
2022/07/25 09:52:10;;;;;;;2.25;0.70;;;27.00;70.60;;;;;;5057086;28;20469;-62
2022/07/25 09:54:57;;;;;;;;;;;;;;;;;;;;;
2022/07/25 09:57:24;;;;;;;1.90;0.70;;;26.80;71.40;;;;;;5048843;28;20033;-63
2022/07/25 09:59:50;;;;;;;2.60;0.80;;;26.90;71.70;;;;;;5059390;28;20075;-63
2022/07/25 10:02:30;;;;;;;1.63;0.65;;;26.90;70.80;;;;;;5072231;28;20021;-62
2022/07/25 10:05:07;;;;;;;2.47;0.70;;;27.00;70.00;;;;;;5078484;28;20034;-62
2022/07/25 10:07:37;;;;;;;3.03;0.77;;;27.10;69.20;;;;;;5075744;28;20075;-63
2022/07/25 10:10:28;;;;;;;3.15;0.95;;;27.20;67.80;;;;;;5067026;28;20016;-62
2022/07/25 10:13:16;;;;;;;5.60;0.90;;;27.30;67.20;;;;;;5072456;28;20362;-62
2022/07/25 10:15:42;;;;;;;1.77;0.88;;;27.40;66.30;;;;;;5061148;28;20012;-62
2022/07/25 10:18:08;;;;;;;2.30;0.90;;;27.40;66.90;;;;;;5070475;28;20095;-62
2022/07/25 10:20:34;;;;;;;3.40;0.90;;;27.40;67.60;;;;;;5055792;28;20091;-62
2022/07/25 10:22:59;;;;;;;3.45;1.08;;;27.50;67.90;;;;;;5074345;28;20499;-62
2022/07/25 10:25:25;;;;;;;2.88;0.90;;;27.50;68.00;;;;;;5071183;28;20025;-62
2022/07/25 10:27:58;;;;;;;3.70;0.80;;;27.60;68.00;;;;;;5076015;28;20511;-63
2022/07/25 10:30:32;;;;;;;2.38;1.17;;;27.80;67.80;;;;;;5071175;28;20024;-63
2022/07/25 10:33:02;;;;;;;3.15;1.17;;;27.90;67.10;;;;;;5069221;28;20083;-63
2022/07/25 10:35:28;;;;;;;3.63;1.20;;;27.80;64.90;;;;;;5059772;28;20074;-62
2022/07/25 10:38:11;;;;;;;2.58;0.93;;;27.80;64.70;;;;;;5077375;28;20409;-62
2022/07/25 10:40:38;;;;;;;2.40;1.15;;;27.90;64.30;;;;;;5062001;28;20025;-62
2022/07/25 10:43:26;;;;;;;2.40;0.70;;;28.00;64.00;;;;;;5080471;28;20116;-63
2022/07/25 10:45:58;;;;;;;4.95;0.80;;;28.20;63.60;;;;;;5057334;28;20029;-62
2022/07/25 10:48:31;;;;;;;3.85;0.75;;;28.30;63.30;;;;;;5076522;28;20027;-62
2022/07/25 10:51:06;;;;;;;1.90;0.55;;;28.50;62.50;;;;;;5053483;28;20135;-62
2022/07/25 10:53:39;;;;;;;3.03;0.70;;;28.60;62.10;;;;;;5080357;28;20024;-62
2022/07/25 10:56:13;;;;;;;2.78;1.13;;;28.70;61.60;;;;;;5065211;28;20023;-62
2022/07/25 10:59:05;;;;;;;3.28;0.80;;;28.80;61.60;;;;;;5076341;28;20361;-63
2022/07/25 11:01:34;;;;;;;3.10;0.90;;;28.90;61.60;;;;;;5071418;28;20036;-62
2022/07/25 11:04:13;;;;;;;2.00;0.70;;;28.90;61.00;;;;;;5076369;28;20040;-62
2022/07/25 11:06:48;;;;;;;;;;;28.90;60.90;;;;;;5064397;28;20078;-63
2022/07/25 11:09:24;;;;;;;3.53;1.13;;;29.00;61.30;;;;;;5060227;28;19905;-63
2022/07/25 11:11:53;;;;;;;3.75;1.05;;;29.20;61.00;;;;;;5061784;28;20025;-63
2022/07/25 11:14:33;;;;;;;2.97;0.90;;;29.30;60.40;;;;;;5059033;28;20507;-63
2022/07/25 11:17:10;;;;;;;3.17;1.05;;;29.20;60.30;;;;;;5056418;28;20017;-63
2022/07/25 11:19:53;;;;;;;3.60;0.88;;;29.20;59.80;;;;;;5058941;28;20058;-63
2022/07/25 11:22:19;;;;;;;3.78;1.23;;;29.10;59.60;;;;;;5054866;28;20484;-62
2022/07/25 11:24:46;;;;;;;2.72;0.82;;;29.10;59.50;;;;;;5056598;28;20048;-63
2022/07/25 11:27:32;;;;;;;3.45;0.90;;;29.10;59.60;;;;;;5065790;28;20025;-63
2022/07/25 11:30:14;;;;;;;4.10;1.48;;;29.10;59.90;;;;;;5069269;28;20052;-63
2022/07/25 11:32:45;;;;;;;4.18;1.27;;;29.00;60.20;;;;;;5069538;28;20028;-62
2022/07/25 11:35:12;;;;;;;4.13;1.00;;;28.90;61.20;;;;;;5069905;28;20040;-63
2022/07/25 11:37:58;;;;;;;5.68;1.25;;;28.70;61.60;;;;;;5077146;28;20055;-63
2022/07/25 11:40:24;;;;;;;5.15;1.45;;;28.60;61.70;;;;;;5070466;28;20104;-63
2022/07/25 11:42:56;;;;;;;4.00;1.45;;;28.50;62.10;;;;;;5061431;28;20103;-63
2022/07/25 11:45:24;;;;;;;4.80;1.40;;;28.40;62.00;;;;;;5070226;28;20132;-63
2022/07/25 11:48:01;;;;;;;3.83;1.17;;;28.10;62.00;;;;;;5071457;28;20028;-63
2022/07/25 11:50:31;;;;;;;2.67;0.90;;;28.00;61.70;;;;;;5072110;28;20190;-63
2022/07/25 11:53:03;;;;;;;4.68;0.98;;;27.90;61.60;;;;;;5056695;28;20484;-63
2022/07/25 11:55:31;;;;;;;4.47;1.10;;;27.90;62.00;;;;;;5072861;28;20551;-63
2022/07/25 11:57:59;;;;;;;2.25;0.80;;;28.10;62.10;;;;;;5074174;28;20029;-63
2022/07/25 12:00:25;;;;;;;6.77;1.20;;;28.20;61.90;;;;;;5067642;28;20075;-63
2022/07/25 12:02:50;;;;;;;4.30;1.15;;;28.30;61.30;;;;;;5071521;28;20052;-63
2022/07/25 12:05:21;;;;;;;2.47;0.90;;;28.20;61.20;;;;;;5064375;28;20028;-63
2022/07/25 12:07:53;;;;;;;6.03;1.70;;;28.20;61.60;;;;;;5063775;28;20028;-63
2022/07/25 12:10:21;;;;;;;4.43;1.30;;;28.20;61.60;;;;;;5053277;28;20021;-63
2022/07/25 12:12:53;;;;;;;2.77;1.23;;;28.10;61.80;;;;;;5064568;28;20048;-62
2022/07/25 12:15:31;;;;;;;4.68;1.15;;;28.10;60.90;;;;;;5070091;28;20259;-63
2022/07/25 12:18:17;;;;;;;2.85;1.10;;;28.10;60.80;;;;;;5069624;28;20025;-62
2022/07/25 12:20:43;;;;;;;4.20;1.98;;;28.00;61.00;;;;;;5065381;28;20091;-62
2022/07/25 12:23:11;;;;;;;2.88;1.30;;;28.00;61.00;;;;;;5064051;28;20017;-62
2022/07/25 12:25:41;;;;;;;5.80;1.30;;;28.00;60.80;;;;;;5061162;28;20033;-63
2022/07/25 12:28:08;;;;;;;5.00;1.40;;;28.00;60.40;;;;;;5068469;28;20025;-62
2022/07/25 12:30:34;;;;;;;3.75;1.75;;;28.00;60.50;;;;;;5062372;28;20021;-63
2022/07/25 12:33:00;;;;;;;3.97;1.65;;;27.90;60.70;;;;;;5060761;28;20032;-63
2022/07/25 12:35:26;;;;;;;3.33;1.45;;;27.90;61.10;;;;;;5084606;28;20017;-62
2022/07/25 12:37:52;;;;;;;3.67;1.70;;;27.90;61.50;;;;;;5065210;28;20021;-63
2022/07/25 12:40:19;;;;;;;5.50;1.60;;;27.80;61.80;;;;;;5079719;28;20088;-63
2022/07/25 12:42:45;;;;;;;6.22;2.20;;;27.60;62.20;;;;;;5062698;28;20036;-63
2022/07/25 12:45:11;;;;;;;5.72;2.00;;;27.50;62.70;;;;;;5065788;28;20036;-63
2022/07/25 12:47:58;;;;;;;5.97;1.95;;;27.30;63.30;;;;;;5058679;28;20086;-62
2022/07/25 12:50:24;;;;;;;6.03;1.90;;;27.20;64.00;;;;;;5056076;28;20035;-63
2022/07/25 12:52:50;;;;;;;5.03;1.92;;;27.00;64.70;;;;;;5080989;28;20092;-62